• Join FlightAware (Why Join?)
  • Login
  • US Flag 
11:53AM EDT


 

Airport Tracker/Info


-or-


 

Live Flight TrackerFlight Track Log ✈ VH-OIS ✈ 18-Jul-2013 ✈ YPJT / JAD - YPJT / JAD

Flight Track Log - Related Links

Times and Time Zones

All times are in EDT time to prevent confusion due to time zone crossing. See the VH-OIS flight status page for this flight to view local times or setup timezone preferences in your user account.

Time Position Orientation Groundspeed Altitude Reporting Facility
EDT Latitude Longitude Course Direction KTS MPH feet Rate Location/Type
09:11PM -32.1020 115.8710 243° Southwest 76 87  Level FlightAware
09:11PM -32.1060 115.8620 242° Southwest 86 99 200 600 Climbing FlightAware
09:12PM -32.1110 115.8510 242° Southwest 88 101 500 360 Climbing FlightAware
09:12PM -32.1180 115.8350 243° Southwest 107 123 600 120 Climbing FlightAware
09:13PM -32.1280 115.8330 190° South 100 115 600  Level FlightAware
09:13PM -32.1400 115.8350 172° South 96 110 600  Level FlightAware
09:14PM -32.1520 115.8380 168° South 95 109 600 120 Level FlightAware
09:14PM -32.1590 115.8400 166° South 91 105 700 420 Climbing FlightAware
09:14PM -32.1700 115.8430 167° South 85 98 900 540 Climbing FlightAware
09:15PM -32.1800 115.8440 175° South 81 93 1,200 480 Climbing FlightAware
09:15PM -32.1890 115.8430 185° South 91 105 1,300  Climbing FlightAware
09:16PM -32.2010 115.8450 172° South 101 116 1,200 -120 Descending FlightAware
09:16PM -32.2140 115.8470 173° South 102 117 1,200  Level FlightAware
09:17PM -32.2290 115.8470 180° South 105 121 1,200  Level FlightAware
09:17PM -32.2370 115.8450 192° South 108 124 1,200  Level FlightAware
09:17PM -32.2450 115.8430 192° South 108 124 1,200  Level FlightAware
09:18PM -32.2580 115.8400 191° South 107 123 1,200 -120 Level FlightAware
09:18PM -32.2700 115.8360 196° South 107 123 1,100  Descending FlightAware
09:18PM -32.2790 115.8340 191° South 105 121 1,200 60 Climbing FlightAware
09:19PM -32.2990 115.8300 190° South 97 112 1,200 300 Level FlightAware
09:20PM -32.3100 115.8270 193° South 77 89 1,600 660 Climbing FlightAware
09:20PM -32.3200 115.8250 190° South 68 78 1,900 600 Climbing FlightAware
09:20PM -32.3260 115.8240 188° South 67 77 2,100 600 Climbing FlightAware
09:21PM -32.3370 115.8220 189° South 63 72 2,500 600 Climbing FlightAware
09:21PM -32.3450 115.8210 186° South 61 70 2,700 600 Climbing FlightAware
09:22PM -32.3520 115.8200 187° South 61 70 3,000 600 Climbing FlightAware
09:22PM -32.3590 115.8190 187° South 60 69 3,200 540 Climbing FlightAware
09:23PM -32.3670 115.8170 192° South 57 66 3,500 540 Climbing FlightAware
09:23PM -32.3740 115.8160 187° South 60 69 3,700 540 Climbing FlightAware
09:24PM -32.3880 115.8160 180° South 66 76 4,200 540 Climbing FlightAware
09:24PM -32.3960 115.8150 186° South 63 72 4,400 420 Climbing FlightAware
09:25PM -32.4050 115.8150 180° South 68 78 4,600 360 Climbing FlightAware
09:25PM -32.4130 115.8150 180° South 69 79 4,800 420 Climbing FlightAware
09:26PM -32.4210 115.8150 180° South 69 79 5,000 540 Climbing FlightAware
09:26PM -32.4250 115.8140 192° South 69 79 5,100 300 Climbing FlightAware
09:26PM -32.4350 115.8130 185° South 69 79 5,200 240 Climbing FlightAware
09:27PM -32.4400 115.8120 190° South 70 81 5,300 420 Climbing FlightAware
09:27PM -32.4490 115.8110 185° South 68 78 5,500 60 Climbing FlightAware
09:28PM -32.4610 115.8090 188° South 98 113 5,400 -240 Descending FlightAware
09:28PM -32.4730 115.8070 188° South 103 119 5,300 -180 Descending FlightAware
09:28PM -32.4800 115.8060 187° South 96 110 5,300 -300 Level FlightAware
09:29PM -32.4950 115.8030 190° South 101 116 5,100 -300 Descending FlightAware
09:29PM -32.5100 115.8010 186° South 100 115 5,000 -240 Descending FlightAware
09:30PM -32.5220 115.7990 188° South 102 117 4,900 120 Descending FlightAware
09:30PM -32.5330 115.7980 184° South 81 93 5,100 360 Climbing FlightAware
09:31PM -32.5470 115.7970 183° South 80 92 5,300 180 Climbing FlightAware
09:31PM -32.5570 115.7960 185° South 86 99 5,300  Level FlightAware
09:32PM -32.5700 115.7950 184° South 96 110 5,300 -120 Level FlightAware
09:32PM -32.5820 115.7930 188° South 99 114 5,200 -180 Descending FlightAware
09:32PM -32.5870 115.7930 180° South 102 117 5,200 -300 Level FlightAware
09:33PM -32.6020 115.7910 186° South 100 115 5,000 -240 Descending FlightAware
09:33PM -32.6170 115.7900 183° South 100 115 5,000  Level FlightAware
09:34PM -32.6300 115.7880 187° South 86 99 5,000  Level FlightAware
09:34PM -32.6350 115.7880 180° South 85 98 5,000 120 Level FlightAware
09:34PM -32.6480 115.7880 180° South 84 97 5,100 120 Climbing FlightAware
09:35PM -32.6540 115.7890 172° South 95 109 5,100  Level FlightAware
09:35PM -32.6630 115.7890 180° South 84 97 5,100  Level FlightAware
09:35PM -32.6760 115.7880 184° South 86 99 5,100  Level FlightAware
09:36PM -32.6870 115.7880 180° South 85 98 5,100  Level FlightAware
09:36PM -32.6930 115.7880 180° South 85 98 5,100  Level FlightAware
09:37PM -32.7040 115.7890 176° South 95 109 5,100 -120 Level FlightAware
09:37PM -32.7170 115.7860 191° South 95 109 5,000 -180 Descending FlightAware
09:37PM -32.7240 115.7860 180° South 85 98 5,000  Level FlightAware
09:38PM -32.7370 115.7850 184° South 96 110 5,000  Level FlightAware
09:38PM -32.7480 115.7840 184° South 85 98 5,000  Level FlightAware
09:39PM -32.7590 115.7840 180° South 85 98 5,000  Level FlightAware
09:39PM -32.7670 115.7830 186° South 88 101 5,000  Level FlightAware
09:39PM -32.7710 115.7820 192° South 88 101 5,000  Level FlightAware
09:40PM -32.7840 115.7790 191° South 82 94 5,000  Level FlightAware
09:40PM -32.7920 115.7770 192° South 83 96 5,000  Level FlightAware
09:40PM -32.8030 115.7740 193° South 84 97 5,000  Level FlightAware
09:41PM -32.8170 115.7720 187° South 82 94 5,000  Level FlightAware
09:41PM -32.8220 115.7720 180° South 82 94 5,000  Level FlightAware
09:42PM -32.8340 115.7710 184° South 80 92 5,000  Level FlightAware
09:42PM -32.8470 115.7700 184° South 91 105 5,000  Level FlightAware
09:43PM -32.8600 115.7700 180° South 92 106 5,000  Level FlightAware
09:43PM -32.8740 115.7690 183° South 90 104 5,000  Level FlightAware
09:44PM -32.8830 115.7670 191° South 91 105 5,000 -180 Level FlightAware
09:44PM -32.8890 115.7660 188° South 94 108 4,900 -480 Descending FlightAware
09:44PM -32.9060 115.7650 183° South 104 120 4,600 -900 Descending FlightAware
09:45PM -32.9220 115.7620 189° South 100 115 3,900 -1,260 Descending FlightAware
09:45PM -32.9300 115.7610 186° South 99 114 3,600 -1,140 Descending FlightAware
09:46PM -32.9440 115.7580 190° South 104 120 3,100 -1,020 Descending FlightAware
09:46PM -32.9570 115.7550 191° South 97 112 2,700 -960 Descending FlightAware
09:46PM -32.9620 115.7540 190° South 103 119 2,500 -480 Descending FlightAware
09:47PM -32.9760 115.7520 187° South 98 113 2,400  Descending FlightAware
09:47PM -32.9850 115.7510 185° South 80 92 2,500 120 Climbing FlightAware
09:47PM -32.9920 115.7500 187° South 86 99 2,500  Level FlightAware
09:48PM -33.0000 115.7480 192° South 86 99 2,500  Level FlightAware
09:48PM -33.0120 115.7460 188° South 82 94 2,500  Level FlightAware
09:49PM -33.0190 115.7450 187° South 83 96 2,500 60 Level FlightAware
09:49PM -33.0370 115.7410 191° South 84 97 2,600 60 Climbing FlightAware
09:50PM -33.0460 115.7400 185° South 84 97 2,600  Level FlightAware
09:52PM -33.0396 115.7410 North  Level Estimated
09:53PM -33.0359 115.7415 North  Level Estimated
09:54PM -33.0323 115.7421 North  Level Estimated
09:55PM -33.0287 115.7426 North  Level Estimated
09:56PM -33.0250 115.7432 North  Level Estimated
09:57PM -33.0214 115.7437 North  Level Estimated
09:58PM -33.0177 115.7443 North  Level Estimated
09:59PM -33.0141 115.7448 North  Level Estimated
10:00PM -33.0105 115.7454 North  Level Estimated
10:01PM -33.0068 115.7459 North  Level Estimated
10:02PM -33.0032 115.7465 North  Level Estimated
10:03PM -32.9995 115.7470 North  Level Estimated
10:04PM -32.9959 115.7476 North  Level Estimated
10:05PM -32.9923 115.7481 North  Level Estimated
10:06PM -32.9886 115.7487 North  Level Estimated
10:07PM -32.9850 115.7492 North  Level Estimated
10:08PM -32.9813 115.7498 North  Level Estimated
10:09PM -32.9777 115.7503 North  Level Estimated
10:10PM -32.9741 115.7509 North  Level Estimated
10:11PM -32.9704 115.7514 North  Level Estimated
10:12PM -32.9668 115.7520 North  Level Estimated
10:13PM -32.9631 115.7525 North  Level Estimated
10:14PM -32.9595 115.7531 North  Level Estimated
10:15PM -32.9559 115.7536 North  Level Estimated
10:16PM -32.9522 115.7542 North  Level Estimated
10:17PM -32.9486 115.7547 North  Level Estimated
10:18PM -32.9449 115.7553 North  Level Estimated
10:19PM -32.9413 115.7558 North  Level Estimated
10:20PM -32.9377 115.7564 North  Level Estimated
10:21PM -32.9340 115.7569 North  Level Estimated
10:22PM -32.9304 115.7575 North  Level Estimated
10:22PM -32.8580 115.8730 20° North 136 157 2,600  Level FlightAware
10:22PM -32.8440 115.8790 20° North 135 155 2,600 -120 Level FlightAware
10:23PM -32.8300 115.8840 17° North 137 158 2,500 -120 Descending FlightAware
10:23PM -32.8160 115.8890 17° North 137 158 2,500 120 Level FlightAware
10:24PM -32.7730 115.9020 14° North 134 154 2,700 120 Climbing FlightAware
10:24PM -32.7600 115.9070 18° North 137 158 2,700  Level FlightAware
10:25PM -32.7390 115.9140 16° North 134 154 2,700  Level FlightAware
10:25PM -32.7190 115.9190 12° North 148 170 2,700  Level FlightAware
10:26PM -32.7160 115.9200 16° North 137 158 2,700  Level FlightAware
10:26PM -32.6970 115.9240 10° North 138 159 2,700 -120 Level FlightAware
10:27PM -32.6740 115.9300 12° North 151 174 2,600 -120 Descending FlightAware
10:27PM -32.6580 115.9340 12° North 146 168 2,600 -240 Level FlightAware
10:27PM -32.6520 115.9350 North 146 168 2,500 -180 Descending FlightAware
10:28PM -32.6310 115.9430 18° North 135 155 2,500  Level FlightAware
10:28PM -32.6160 115.9490 19° North 143 165 2,500 -120 Level FlightAware
10:29PM -32.5970 115.9580 22° Northeast 138 159 2,400 -120 Descending FlightAware
10:29PM -32.5840 115.9640 21° North 138 159 2,400  Level FlightAware
10:29PM -32.5660 115.9720 21° North 143 165 2,400  Level FlightAware
10:30PM -32.5450 115.9810 20° North 133 153 2,400  Level FlightAware
10:30PM -32.5340 115.9840 13° North 135 155 2,400  Level FlightAware
10:31PM -32.5030 115.9950 17° North 133 153 2,400  Level FlightAware
10:31PM -32.4980 115.9970 19° North 134 154 2,400  Level FlightAware
10:32PM -32.4820 116.0010 12° North 135 155 2,400  Level FlightAware
10:32PM -32.4590 116.0060 10° North 134 154 2,400 -120 Level FlightAware
10:33PM -32.4450 116.0090 10° North 136 157 2,300 -180 Descending FlightAware
10:33PM -32.4310 116.0130 14° North 135 155 2,300  Level FlightAware
10:33PM -32.4170 116.0170 14° North 137 158 2,300  Level FlightAware
10:34PM -32.3990 116.0220 13° North 137 158 2,300 120 Level FlightAware
10:34PM -32.3850 116.0260 14° North 134 154 2,400 60 Climbing FlightAware
10:35PM -32.3670 116.0310 13° North 130 150 2,400  Level FlightAware
10:35PM -32.3520 116.0350 13° North 130 150 2,400 60 Level FlightAware
10:36PM -32.3340 116.0380 North 128 147 2,500 180 Climbing FlightAware
10:36PM -32.3210 116.0390 North 134 154 2,600  Climbing FlightAware
10:37PM -32.2860 116.0360 356° North 146 168 2,500 -120 Descending FlightAware
10:38PM -32.2510 116.0410 North 123 142 2,500  Level FlightAware
10:38PM -32.2390 116.0520 38° Northeast 124 143 2,500  Level FlightAware
10:39PM -32.2240 116.0630 32° Northeast 132 152 2,500 60 Level FlightAware
10:39PM -32.2080 116.0730 28° Northeast 129 148 2,600 60 Climbing FlightAware
10:39PM -32.1950 116.0830 33° Northeast 126 145 2,600  Level FlightAware
10:40PM -32.1810 116.0950 36° Northeast 139 160 2,600 -120 Level FlightAware
10:40PM -32.1670 116.1070 36° Northeast 131 151 2,500 -180 Descending FlightAware
10:41PM -32.1610 116.1140 45° Northeast 126 145 2,500  Level FlightAware
10:41PM -32.1520 116.1300 56° Northeast 118 136 2,500  Level FlightAware
10:42PM -32.1470 116.1480 72° East 115 132 2,500 60 Level FlightAware
10:42PM -32.1440 116.1630 77° East 114 131 2,600 60 Climbing FlightAware
10:42PM -32.1410 116.1810 79° East 112 129 2,600  Level FlightAware
10:43PM -32.1410 116.1900 90° East 113 130 2,600 -120 Level FlightAware
10:43PM -32.1410 116.2120 90° East 117 135 2,500 -120 Descending FlightAware
10:44PM -32.1370 116.2350 78° East 119 137 2,500  Level FlightAware
10:44PM -32.1300 116.2530 65° Northeast 119 137 2,500  Level FlightAware
10:45PM -32.1250 116.2640 62° Northeast 116 133 2,500 -120 Level FlightAware
10:45PM -32.1150 116.2820 57° Northeast 126 145 2,400 -300 Descending FlightAware
10:45PM -32.1060 116.2850 16° North 133 153 2,300 -180 Descending FlightAware
10:46PM -32.0900 116.2850 360° North 134 154 2,300 -360 Level FlightAware
10:46PM -32.0730 116.2900 14° North 132 152 2,000 -420 Descending FlightAware
10:47PM -32.0570 116.3010 30° Northeast 118 136 1,900 -180 Descending FlightAware
10:47PM -32.0500 116.3060 31° Northeast 113 130 1,900 120 Level FlightAware
10:48PM -32.0380 116.3130 26° Northeast 114 131 2,000 60 Climbing FlightAware
10:48PM -32.0210 116.3220 24° Northeast 118 136 2,000 60 Level FlightAware
10:49PM -32.0030 116.3290 18° North 112 129 2,100 60 Climbing FlightAware
10:49PM -31.9920 116.3350 25° Northeast 122 140 2,100  Level FlightAware
10:49PM -31.9800 116.3410 23° Northeast 124 143 2,100  Level FlightAware
10:50PM -31.9600 116.3500 21° North 117 135 2,100  Level FlightAware
10:51PM -31.9430 116.3610 29° Northeast 114 131 2,100  Level FlightAware
10:51PM -31.9290 116.3690 26° Northeast 111 128 2,100  Level FlightAware
10:51PM -31.9250 116.3710 23° Northeast 111 128 2,100  Level FlightAware
10:52PM -31.9100 116.3790 24° Northeast 113 130 2,100  Level FlightAware
10:52PM -31.8890 116.3900 24° Northeast 125 144 2,100  Level FlightAware
10:53PM -31.8730 116.3980 23° Northeast 121 139 2,100 -120 Level FlightAware
10:53PM -31.8580 116.4060 24° Northeast 114 131 2,000 -300 Descending FlightAware
10:54PM -31.8320 116.4240 30° Northeast 120 138 1,700 -240 Descending FlightAware
10:55PM -31.8210 116.4290 21° North 120 138 1,700  Level FlightAware
10:57PM -31.8243 116.4225 239° Southwest  Level Estimated
10:58PM -31.8262 116.4188 239° Southwest  Level Estimated
10:59PM -31.8281 116.4151 239° Southwest  Level Estimated
11:00PM -31.8300 116.4114 239° Southwest  Level Estimated
11:01PM -31.8318 116.4077 239° Southwest  Level Estimated
11:02PM -31.8337 116.4040 239° Southwest  Level Estimated
11:03PM -31.8356 116.4003 239° Southwest  Level Estimated
11:04PM -31.8375 116.3966 239° Southwest  Level Estimated
11:05PM -31.8394 116.3929 239° Southwest  Level Estimated
11:06PM -31.8412 116.3892 239° Southwest  Level Estimated
11:07PM -31.8431 116.3855 239° Southwest  Level Estimated
11:08PM -31.8450 116.3818 239° Southwest  Level Estimated
11:09PM -31.8469 116.3781 239° Southwest  Level Estimated
11:10PM -31.8488 116.3744 239° Southwest  Level Estimated
11:11PM -31.8506 116.3707 239° Southwest  Level Estimated
11:12PM -31.8525 116.3670 239° Southwest  Level Estimated
11:13PM -31.8544 116.3633 239° Southwest  Level Estimated
11:14PM -31.8563 116.3596 239° Southwest  Level Estimated
11:15PM -31.8582 116.3559 239° Southwest  Level Estimated
11:16PM -31.8600 116.3522 239° Southwest  Level Estimated
11:17PM -31.8619 116.3484 239° Southwest  Level Estimated
11:18PM -31.8638 116.3447 239° Southwest  Level Estimated
11:19PM -31.8657 116.3410 239° Southwest  Level Estimated
11:20PM -31.8676 116.3373 239° Southwest  Level Estimated
11:21PM -31.8694 116.3336 239° Southwest  Level Estimated
11:21PM -31.7900 116.5010 203° Southwest 95 109 2,000  Level FlightAware
11:22PM -31.8030 116.4920 210° Southwest 101 116 2,100 120 Climbing FlightAware
11:22PM -31.8070 116.4890 213° Southwest 101 116 2,100  Level FlightAware
11:22PM -31.8190 116.4810 210° Southwest 92 106 2,100  Level FlightAware
11:23PM -31.8300 116.4730 212° Southwest 98 113 2,100  Level FlightAware
11:23PM -31.8420 116.4650 210° Southwest 99 114 2,100  Level FlightAware
11:23PM -31.8480 116.4610 210° Southwest 96 110 2,100  Level FlightAware
11:24PM -31.8620 116.4530 206° Southwest 95 109 2,100  Level FlightAware
11:24PM -31.8720 116.4470 207° Southwest 97 112 2,100 120 Level FlightAware
11:25PM -31.8830 116.4400 208° Southwest 94 108 2,200 60 Climbing FlightAware
11:25PM -31.8940 116.4350 201° Southwest 96 110 2,200 -180 Level FlightAware
11:25PM -31.8980 116.4320 212° Southwest 107 123 2,100  Descending FlightAware
11:26PM -31.9110 116.4240 208° Southwest 96 110 2,200  Climbing FlightAware
11:26PM -31.9240 116.4170 205° Southwest 99 114 2,100 -240 Descending FlightAware
11:27PM -31.9350 116.4110 205° Southwest 109 125 2,000 -180 Descending FlightAware
11:27PM -31.9440 116.4060 205° Southwest 107 123 2,000 120 Level FlightAware
11:27PM -31.9550 116.4010 201° Southwest 106 122 2,100 60 Climbing FlightAware
11:28PM -31.9690 116.3940 203° Southwest 108 124 2,100 -180 Level FlightAware
11:28PM -31.9740 116.3910 207° Southwest 109 125 2,000 -180 Descending FlightAware
11:29PM -31.9870 116.3830 208° Southwest 99 114 2,000  Level FlightAware
11:29PM -31.9940 116.3790 206° Southwest 100 115 2,000  Level FlightAware
11:29PM -32.0050 116.3710 212° Southwest 101 116 2,000 -180 Level FlightAware
11:30PM -32.0100 116.3680 207° Southwest 100 115 1,900  Descending FlightAware
11:30PM -32.0230 116.3590 210° Southwest 101 116 2,000 180 Climbing FlightAware
11:30PM -32.0340 116.3510 212° Southwest 95 109 2,100 60 Climbing FlightAware
11:31PM -32.0470 116.3440 205° Southwest 94 108 2,100 120 Level FlightAware
11:31PM -32.0540 116.3400 206° Southwest 97 112 2,200 120 Climbing FlightAware
11:32PM -32.0650 116.3330 208° Southwest 100 115 2,200  Level FlightAware
11:32PM -32.0700 116.3290 214° Southwest 98 113 2,200 -180 Level FlightAware
11:32PM -32.0810 116.3220 208° Southwest 110 127 2,100  Descending FlightAware
11:33PM -32.0890 116.3180 203° Southwest 109 125 2,200  Climbing FlightAware
11:33PM -32.1030 116.3110 203° Southwest 104 120 2,100 -180 Descending FlightAware
11:33PM -32.1080 116.3090 199° South 103 119 2,100  Level FlightAware
11:34PM -32.1190 116.3030 205° Southwest 94 108 2,100 -180 Level FlightAware
11:34PM -32.1260 116.2960 220° Southwest 114 131 2,000  Descending FlightAware
11:34PM -32.1280 116.2900 249° West 115 132 2,100 240 Climbing FlightAware
11:35PM -32.1300 116.2720 263° West 116 133 2,200 120 Climbing FlightAware
11:35PM -32.1320 116.2600 259° West 116 133 2,200  Level FlightAware
11:35PM -32.1350 116.2450 257° West 120 138 2,200 -120 Level FlightAware
11:36PM -32.1370 116.2260 263° West 123 142 2,100 -180 Descending FlightAware
11:36PM -32.1380 116.2210 257° West 119 137 2,100 -180 Level FlightAware
11:37PM -32.1420 116.1980 258° West 124 143 2,000 -120 Descending FlightAware
11:37PM -32.1460 116.1810 254° West 121 139 2,000  Level FlightAware
11:37PM -32.1490 116.1690 254° West 120 138 2,000 120 Level FlightAware
11:38PM -32.1520 116.1520 258° West 117 135 2,100  Climbing FlightAware
11:38PM -32.1560 116.1360 254° West 116 133 2,000  Descending FlightAware
11:39PM -32.1600 116.1190 254° West 118 136 2,100 120 Climbing FlightAware
11:39PM -32.1650 116.1030 250° West 108 124 2,100 -240 Level FlightAware
11:40PM -32.1680 116.0870 258° West 106 122 1,900 -360 Descending FlightAware
11:40PM -32.1700 116.0720 261° West 100 115 1,800 -300 Descending FlightAware
11:40PM -32.1710 116.0640 262° West 104 120 1,700 -180 Descending FlightAware
11:41PM -32.1730 116.0500 260° West 110 127 1,700  Level FlightAware
11:41PM -32.1740 116.0400 263° West 104 120 1,700 -300 Level FlightAware
11:41PM -32.1760 116.0240 262° West 115 132 1,500 -660 Descending FlightAware
11:42PM -32.1780 115.9910 266° West 121 139 900 -300 Descending FlightAware
11:43PM -32.1770 115.9700 273° West 112 129 1,100 180 Climbing FlightAware
11:43PM -32.1720 115.9590 298° West 124 143 1,100  Level FlightAware
11:44PM -32.1630 115.9440 305° West 125 144 1,100 -180 Level FlightAware
11:44PM -32.1530 115.9340 320° Northwest 114 131 1,000 -240 Descending FlightAware
11:44PM -32.1500 115.9310 320° Northwest 114 131 1,000 120 Level FlightAware
11:45PM -32.1370 115.9170 318° Northwest 114 131 1,100 60 Climbing FlightAware
11:45PM -32.1200 115.8990 318° Northwest 125 144 1,100 -180 Level FlightAware
11:46PM -32.1040 115.8990 360° North 125 144 900 -660 Descending FlightAware
11:46PM -32.0910 115.8980 356° North 121 139 600 -660 Descending FlightAware
11:46PM -32.0870 115.8890 298° West 113 130 500 -180 Descending FlightAware
11:47PM -32.0830 115.8750 289° West 83 96 500  Level FlightAware
11:47PM -32.0780 115.8650 301° West 85 98 500  Level FlightAware
11:48PM -32.0790 115.8590 259° West 64 74 500  Level FlightAware
11:48PM -32.0810 115.8560 232° Southwest 67 77 500 -300 Level FlightAware
11:48PM -32.0840 115.8550 196° South 66 76 400 -480 Descending FlightAware
11:48PM -32.0870 115.8550 180° South 70 81 300 -420 Descending FlightAware
11:49PM -32.0950 115.8590 157° South 58 67 100 -420 Descending FlightAware
11:49PM -32.0980 115.8690 110° East 60 69 -240 Descending FlightAware
11:52PM -32.0975 115.8792 87° East  Level FlightAware Approximate